Time;durP1;ratioP1;P1;durP2;ratioP2;P2;SDS_P1;SDS_P2;PMS_P1;PMS_P2;Temp;Humidity;BMP_temperature;BMP_pressure;BME280_temperature;BME280_humidity;BME280_pressure;Samples;Min_cycle;Max_cycle;Signal;HPM_P1;HPM_P2
2020/12/23 00:01:21;;;;;;;2.80;1.05;;;16.80;74.50;;;;;;4993242;28;20049;-63
2020/12/23 00:03:53;;;;;;;1.77;0.70;;;16.80;74.50;;;;;;4995168;28;20084;-63
2020/12/23 00:06:36;;;;;;;2.53;0.90;;;16.80;74.60;;;;;;4990265;28;20042;-65
2020/12/23 00:09:08;;;;;;;1.05;0.93;;;16.80;74.50;;;;;;4990174;28;20065;-63
2020/12/23 00:11:39;;;;;;;2.05;0.93;;;16.90;74.60;;;;;;4991310;28;20808;-64
2020/12/23 00:14:10;;;;;;;2.38;1.58;;;16.90;74.60;;;;;;4985748;28;20556;-64
2020/12/23 00:16:43;;;;;;;1.65;0.95;;;16.90;74.60;;;;;;4992305;28;20408;-64
2020/12/23 00:19:17;;;;;;;4.72;1.27;;;16.90;74.60;;;;;;4991996;28;20131;-65
2020/12/23 00:21:48;;;;;;;2.70;1.25;;;16.90;74.60;;;;;;4991570;28;20062;-64
2020/12/23 00:24:18;;;;;;;2.25;0.98;;;16.90;74.60;;;;;;4987212;28;20120;-65
2020/12/23 00:26:48;;;;;;;0.77;0.70;;;16.90;74.60;;;;;;4996453;28;20053;-66
2020/12/23 00:29:19;;;;;;;1.98;0.90;;;16.90;74.60;;;;;;4995402;28;20050;-64
2020/12/23 00:31:53;;;;;;;2.80;0.80;;;16.90;74.60;;;;;;4994570;28;20125;-65
2020/12/23 00:34:26;;;;;;;3.53;0.70;;;16.90;74.60;;;;;;4993323;28;20097;-65
2020/12/23 00:37:01;;;;;;;3.53;0.98;;;17.00;74.70;;;;;;4996019;28;20050;-64
2020/12/23 00:39:32;;;;;;;4.22;0.80;;;16.90;74.70;;;;;;4986344;28;20101;-65
2020/12/23 00:42:05;;;;;;;1.60;0.82;;;17.00;74.80;;;;;;4997634;28;20051;-65
2020/12/23 00:44:36;;;;;;;2.55;0.77;;;17.00;74.70;;;;;;4992329;28;20042;-64
2020/12/23 00:47:06;;;;;;;2.30;1.00;;;17.00;74.70;;;;;;4991238;28;20479;-65
2020/12/23 00:49:38;;;;;;;2.08;1.00;;;17.00;74.70;;;;;;5001390;28;20050;-64
2020/12/23 00:52:10;;;;;;;4.53;1.42;;;17.10;74.80;;;;;;4992341;28;20068;-65
2020/12/23 00:54:44;;;;;;;3.75;0.90;;;17.00;74.80;;;;;;5000945;28;20061;-64
2020/12/23 00:57:24;;;;;;;1.65;0.70;;;17.10;74.70;;;;;;4985610;28;20049;-65
2020/12/23 00:59:56;;;;;;;1.38;0.88;;;17.10;74.80;;;;;;4991286;28;20495;-63
2020/12/23 01:02:28;;;;;;;2.08;0.70;;;17.10;74.70;;;;;;4991136;28;20315;-65
2020/12/23 01:04:59;;;;;;;2.08;0.90;;;17.10;74.60;;;;;;4987221;28;20061;-65
2020/12/23 01:07:31;;;;;;;1.50;0.88;;;17.10;74.70;;;;;;4991882;28;20502;-63
2020/12/23 01:10:01;;;;;;;3.88;1.05;;;17.10;74.80;;;;;;4993589;28;20266;-65
2020/12/23 01:12:31;;;;;;;4.57;1.10;;;17.10;74.70;;;;;;4984446;28;20135;-64
2020/12/23 01:15:02;;;;;;;0.70;0.70;;;17.10;74.60;;;;;;4998218;28;20105;-65
2020/12/23 01:17:32;;;;;;;3.83;1.05;;;17.10;74.60;;;;;;4988335;28;20142;-64
2020/12/23 01:20:05;;;;;;;3.00;1.02;;;17.10;74.70;;;;;;4986998;28;20042;-65
2020/12/23 01:22:37;;;;;;;3.25;0.77;;;17.20;74.80;;;;;;4992077;28;20042;-65
2020/12/23 01:25:07;;;;;;;2.72;1.17;;;17.20;74.80;;;;;;4993589;28;20143;-64
2020/12/23 01:27:38;;;;;;;2.53;0.90;;;17.20;74.70;;;;;;4987943;28;20554;-64
2020/12/23 01:30:09;;;;;;;4.65;1.00;;;17.20;74.60;;;;;;4988708;28;20584;-64
2020/12/23 01:32:43;;;;;;;3.05;1.25;;;17.20;74.50;;;;;;4986440;28;20057;-64
2020/12/23 01:35:17;;;;;;;3.05;1.10;;;17.20;74.50;;;;;;4993424;28;20544;-66
2020/12/23 01:37:48;;;;;;;2.15;1.33;;;17.30;74.60;;;;;;4989635;28;20116;-64
2020/12/23 01:40:18;;;;;;;0.65;0.65;;;17.30;74.50;;;;;;4989173;28;20091;-64
2020/12/23 01:42:49;;;;;;;2.10;0.80;;;17.30;74.50;;;;;;4999662;28;20050;-66
2020/12/23 01:45:21;;;;;;;3.13;1.00;;;17.30;74.40;;;;;;4988439;28;20051;-64
2020/12/23 01:47:53;;;;;;;2.17;0.73;;;17.30;74.40;;;;;;4984192;28;20133;-66
2020/12/23 01:50:25;;;;;;;1.90;1.00;;;17.30;74.40;;;;;;4986669;28;20034;-67
2020/12/23 01:52:57;;;;;;;2.22;0.98;;;17.30;74.40;;;;;;4990170;28;20038;-66
2020/12/23 01:55:28;;;;;;;5.25;1.60;;;17.30;74.30;;;;;;4991636;28;20045;-67
2020/12/23 01:58:00;;;;;;;1.98;0.70;;;17.30;74.30;;;;;;4990790;28;20153;-66
2020/12/23 02:00:32;;;;;;;3.35;1.02;;;17.30;74.20;;;;;;4990872;28;20510;-66
2020/12/23 02:03:09;;;;;;;5.28;0.90;;;17.30;74.20;;;;;;5000831;28;20524;-66
2020/12/23 02:05:43;;;;;;;1.40;0.73;;;17.40;74.20;;;;;;4987436;28;20046;-67
2020/12/23 02:08:15;;;;;;;2.33;0.77;;;17.40;74.20;;;;;;4989750;28;20038;-66
2020/12/23 02:10:49;;;;;;;1.80;1.05;;;17.40;74.20;;;;;;4988644;28;20077;-66
2020/12/23 02:13:39;;;;;;;2.15;0.85;;;17.40;74.10;;;;;;4987983;28;20050;-66
2020/12/23 02:16:13;;;;;;;6.82;1.38;;;17.40;74.10;;;;;;4999488;28;20477;-66
2020/12/23 02:18:44;;;;;;;5.97;1.13;;;17.40;74.00;;;;;;4984045;28;20077;-67
2020/12/23 02:21:28;;;;;;;1.73;0.90;;;17.40;73.90;;;;;;4998160;28;20501;-67
2020/12/23 02:23:58;;;;;;;2.58;0.73;;;17.50;74.00;;;;;;4987960;28;20118;-66
2020/12/23 02:26:28;;;;;;;0.63;0.63;;;17.50;74.00;;;;;;5004173;28;20054;-66
2020/12/23 02:28:59;;;;;;;1.83;1.08;;;17.50;73.90;;;;;;4986609;28;20077;-67
2020/12/23 02:31:29;;;;;;;1.52;0.70;;;17.40;73.90;;;;;;4988461;28;20050;-67
2020/12/23 02:34:06;;;;;;;0.98;0.70;;;17.50;73.90;;;;;;4988715;28;20034;-67
2020/12/23 02:36:38;;;;;;;0.98;0.88;;;17.50;73.80;;;;;;4994246;28;20046;-67
2020/12/23 02:39:10;;;;;;;1.83;0.90;;;17.50;73.90;;;;;;4984914;28;20034;-67
2020/12/23 02:41:41;;;;;;;2.25;0.80;;;17.50;73.80;;;;;;4988612;28;20073;-66
2020/12/23 02:44:13;;;;;;;1.20;0.70;;;17.60;73.90;;;;;;4998501;28;20107;-67
2020/12/23 02:46:51;;;;;;;1.55;0.90;;;17.60;73.80;;;;;;4986701;28;20034;-66
2020/12/23 02:49:22;;;;;;;1.25;1.02;;;17.60;73.80;;;;;;4990846;28;20124;-69
2020/12/23 02:51:56;;;;;;;2.85;0.80;;;17.60;73.80;;;;;;4991928;28;20037;-67
2020/12/23 02:54:26;;;;;;;2.15;0.85;;;17.60;73.70;;;;;;4986008;28;20100;-67
2020/12/23 02:56:58;;;;;;;2.33;1.00;;;17.70;73.70;;;;;;4996611;28;20369;-68
2020/12/23 02:59:30;;;;;;;0.60;0.60;;;17.70;73.70;;;;;;4992795;28;20038;-64
2020/12/23 03:02:02;;;;;;;;;;;17.70;73.60;;;;;;4988805;28;20038;-66
2020/12/23 03:04:33;;;;;;;;;;;17.70;73.60;;;;;;4996698;28;19980;-66
2020/12/23 03:07:05;;;;;;;1.75;0.75;;;17.70;73.60;;;;;;4989605;28;20397;-66
2020/12/23 03:09:35;;;;;;;2.45;0.80;;;17.80;73.50;;;;;;4985012;28;20164;-65
2020/12/23 03:12:05;;;;;;;2.30;0.80;;;17.80;73.50;;;;;;4983414;28;20771;-65
2020/12/23 03:14:35;;;;;;;0.50;0.32;;;17.80;73.60;;;;;;4993884;28;20448;-65
2020/12/23 03:17:09;;;;;;;4.82;0.65;;;17.80;73.60;;;;;;4989379;28;20073;-66
2020/12/23 03:19:44;;;;;;;1.73;0.77;;;17.80;73.50;;;;;;4996972;28;20042;-66
2020/12/23 03:22:15;;;;;;;1.40;0.70;;;17.80;73.50;;;;;;4988573;28;20054;-66
2020/12/23 03:24:45;;;;;;;0.55;0.47;;;17.90;73.50;;;;;;4991313;28;20133;-66
2020/12/23 03:27:16;;;;;;;1.92;0.95;;;17.90;73.50;;;;;;4989074;28;20573;-66
2020/12/23 03:29:46;;;;;;;2.22;0.88;;;17.90;73.40;;;;;;4987830;28;20487;-65
2020/12/23 03:32:17;;;;;;;2.45;0.65;;;17.90;73.30;;;;;;4992779;28;20074;-65
2020/12/23 03:34:49;;;;;;;0.95;0.85;;;17.90;73.20;;;;;;4987005;28;20090;-65
2020/12/23 03:37:23;;;;;;;0.75;0.75;;;17.90;73.10;;;;;;4990870;28;20093;-65
2020/12/23 03:39:54;;;;;;;1.38;0.55;;;18.00;73.20;;;;;;4992162;28;20046;-66
2020/12/23 03:42:29;;;;;;;1.35;0.40;;;18.00;73.00;;;;;;4993335;28;20043;-66
2020/12/23 03:45:00;;;;;;;2.35;0.95;;;18.00;73.00;;;;;;4986261;28;20046;-66
2020/12/23 03:47:30;;;;;;;1.42;0.60;;;18.00;72.90;;;;;;4983356;28;20809;-66
2020/12/23 03:50:01;;;;;;;0.93;0.40;;;18.00;72.90;;;;;;4996989;28;20070;-67
2020/12/23 03:52:35;;;;;;;0.68;0.60;;;18.10;72.80;;;;;;4994539;28;20502;-65
2020/12/23 03:55:09;;;;;;;1.30;0.65;;;18.10;72.90;;;;;;4989349;28;20131;-67
2020/12/23 03:57:41;;;;;;;2.20;1.05;;;18.10;72.90;;;;;;4987451;28;20433;-66
2020/12/23 04:00:14;;;;;;;1.33;0.80;;;18.10;72.80;;;;;;4994848;28;20050;-67
2020/12/23 04:02:44;;;;;;;2.83;0.98;;;18.10;72.70;;;;;;4995526;28;20129;-66
2020/12/23 04:05:15;;;;;;;0.98;0.60;;;18.20;72.70;;;;;;4992375;28;20037;-67
2020/12/23 04:07:47;;;;;;;2.38;0.73;;;18.10;72.60;;;;;;4992185;28;20443;-66
2020/12/23 04:10:17;;;;;;;1.65;0.60;;;18.20;72.60;;;;;;4987536;28;20073;-67
2020/12/23 04:12:50;;;;;;;1.55;0.60;;;18.20;72.60;;;;;;4992792;28;20494;-65
2020/12/23 04:15:22;;;;;;;0.50;0.50;;;18.20;72.60;;;;;;4987797;28;20133;-67
2020/12/23 04:17:55;;;;;;;0.85;0.50;;;18.20;72.40;;;;;;4986632;28;20049;-66
2020/12/23 04:20:27;;;;;;;1.23;0.70;;;18.20;72.40;;;;;;4992910;28;20104;-66
2020/12/23 04:23:05;;;;;;;1.23;0.70;;;18.30;72.40;;;;;;4993451;28;20054;-65
2020/12/23 04:25:35;;;;;;;1.15;0.70;;;18.30;72.40;;;;;;4996222;28;20550;-67
2020/12/23 04:28:07;;;;;;;0.90;0.70;;;18.30;72.30;;;;;;4993180;28;20341;-66
2020/12/23 04:30:39;;;;;;;1.15;0.70;;;18.30;72.30;;;;;;4987762;28;20047;-66
2020/12/23 04:33:16;;;;;;;0.88;0.60;;;18.30;72.30;;;;;;4999466;28;20068;-67
2020/12/23 04:36:04;;;;;;;0.98;0.50;;;18.30;72.30;;;;;;4985190;28;20121;-67
2020/12/23 04:38:35;;;;;;;1.55;1.45;;;18.40;72.20;;;;;;4993728;28;20044;-65
2020/12/23 04:41:07;;;;;;;1.30;1.20;;;18.40;72.20;;;;;;4986506;28;20561;-65
2020/12/23 04:43:41;;;;;;;1.40;0.80;;;18.40;72.20;;;;;;4990966;28;20066;-66
2020/12/23 04:46:16;;;;;;;2.30;1.00;;;18.40;72.10;;;;;;4992072;28;20128;-67
2020/12/23 04:48:56;;;;;;;2.65;1.38;;;18.40;72.10;;;;;;4992399;28;20108;-66
2020/12/23 04:51:36;;;;;;;2.95;2.75;;;18.40;72.10;;;;;;4988457;28;20088;-66
2020/12/23 04:54:08;;;;;;;2.72;2.30;;;18.50;72.10;;;;;;4988716;28;20070;-68
2020/12/23 04:56:38;;;;;;;2.40;1.70;;;18.50;72.10;;;;;;4992335;28;20050;-67
2020/12/23 04:59:12;;;;;;;3.45;2.33;;;18.50;72.00;;;;;;4994425;28;20100;-66
2020/12/23 05:01:45;;;;;;;2.05;1.95;;;18.50;72.00;;;;;;4992950;28;20510;-66
2020/12/23 05:04:18;;;;;;;3.05;1.67;;;18.50;72.00;;;;;;4992160;28;20038;-66
2020/12/23 05:07:00;;;;;;;2.55;0.82;;;18.60;72.00;;;;;;4992746;28;20537;-67
2020/12/23 05:09:30;;;;;;;2.42;1.98;;;18.60;71.90;;;;;;4986479;28;20133;-65
2020/12/23 05:12:01;;;;;;;5.80;5.40;;;18.60;71.90;;;;;;4977171;28;20479;-66
2020/12/23 05:14:32;;;;;;;3.88;2.55;;;18.60;71.80;;;;;;4986509;28;20124;-66
2020/12/23 05:17:09;;;;;;;0.73;0.50;;;18.60;71.80;;;;;;5004039;28;20042;-67
2020/12/23 05:19:41;;;;;;;0.88;0.60;;;18.60;71.70;;;;;;4988065;28;20041;-66
2020/12/23 05:22:18;;;;;;;1.95;0.50;;;18.60;71.60;;;;;;4992976;28;20046;-66
2020/12/23 05:24:54;;;;;;;1.60;0.90;;;18.60;71.60;;;;;;4998431;28;20117;-65
2020/12/23 05:27:26;;;;;;;3.95;1.42;;;18.70;71.60;;;;;;4995193;28;20093;-66
2020/12/23 05:29:56;;;;;;;1.80;1.70;;;18.70;71.60;;;;;;4988969;28;20042;-66
2020/12/23 05:32:35;;;;;;;3.10;1.58;;;18.70;71.50;;;;;;4990834;28;20046;-65
2020/12/23 05:35:08;;;;;;;1.60;1.00;;;18.70;71.80;;;;;;4996612;28;20046;-65
2020/12/23 05:37:41;;;;;;;1.42;0.68;;;18.70;71.40;;;;;;5002067;28;20049;-66
2020/12/23 05:40:14;;;;;;;1.85;0.90;;;18.70;71.40;;;;;;4996915;28;20043;-66
2020/12/23 05:42:47;;;;;;;2.08;1.10;;;18.70;71.30;;;;;;4988084;28;20046;-66
2020/12/23 05:45:18;;;;;;;1.85;0.90;;;18.80;71.30;;;;;;4997952;28;20123;-66
2020/12/23 05:47:52;;;;;;;5.82;0.80;;;18.70;71.10;;;;;;4992691;28;20577;-66
2020/12/23 05:50:24;;;;;;;1.08;0.73;;;18.80;71.20;;;;;;4987395;28;20490;-68
2020/12/23 05:52:55;;;;;;;1.45;0.50;;;18.70;71.20;;;;;;5000544;28;20474;-67
2020/12/23 05:55:26;;;;;;;1.52;0.80;;;18.80;71.20;;;;;;4994315;28;20081;-67
2020/12/23 05:57:57;;;;;;;1.67;0.70;;;18.80;71.20;;;;;;4987786;28;20050;-68
2020/12/23 06:03:31;;;;;;;0.88;0.63;;;18.80;71.10;;;;;;4992458;28;20113;-67
2020/12/23 06:06:04;;;;;;;1.10;0.70;;;18.80;71.10;;;;;;4993366;28;20053;-66
2020/12/23 06:08:37;;;;;;;0.60;0.60;;;18.90;71.10;;;;;;4995196;28;20052;-66
2020/12/23 06:11:38;;;;;;;1.02;0.70;;;18.90;71.10;;;;;;4991089;28;20259;-66
2020/12/23 06:14:20;;;;;;;5.03;1.10;;;18.90;71.00;;;;;;4994875;28;20389;-66
2020/12/23 06:16:59;;;;;;;;;;;18.90;71.00;;;;;;4989879;28;20042;-67
2020/12/23 06:19:37;;;;;;;0.57;0.57;;;18.90;71.00;;;;;;4987580;28;19926;-67
2020/12/23 06:22:10;;;;;;;1.98;0.70;;;18.90;70.80;;;;;;4986643;28;20038;-66
2020/12/23 06:24:40;;;;;;;3.13;0.80;;;18.90;70.70;;;;;;4984929;28;20097;-66
2020/12/23 06:27:17;;;;;;;1.30;0.80;;;18.90;70.60;;;;;;4987974;28;20054;-66
2020/12/23 06:29:48;;;;;;;1.50;0.93;;;18.80;70.60;;;;;;4986730;28;20039;-67
2020/12/23 06:32:22;;;;;;;1.45;0.63;;;18.90;70.70;;;;;;4984878;28;20055;-67
2020/12/23 06:35:01;;;;;;;0.90;0.40;;;18.90;70.60;;;;;;4996632;28;20038;-66
2020/12/23 06:37:34;;;;;;;2.13;0.90;;;18.90;70.50;;;;;;5002746;28;20034;-67
2020/12/23 06:40:12;;;;;;;2.42;0.82;;;18.90;70.50;;;;;;4992225;28;20169;-67
2020/12/23 06:42:52;;;;;;;1.98;0.80;;;18.90;70.40;;;;;;4995458;28;20041;-67
2020/12/23 06:45:22;;;;;;;1.35;1.17;;;18.90;70.30;;;;;;4990859;28;20093;-66
2020/12/23 06:48:18;;;;;;;2.78;1.48;;;18.90;70.30;;;;;;4984396;28;20101;-66
2020/12/23 06:50:52;;;;;;;1.75;1.00;;;18.90;70.40;;;;;;4986678;28;20440;-67
2020/12/23 06:53:37;;;;;;;3.03;0.90;;;19.00;70.30;;;;;;5005911;28;20096;-66
2020/12/23 06:56:07;;;;;;;2.83;0.77;;;19.00;70.30;;;;;;4993600;28;20050;-66
2020/12/23 06:58:40;;;;;;;1.43;0.70;;;19.00;70.30;;;;;;4994010;28;20146;-66
2020/12/23 07:01:21;;;;;;;1.73;0.70;;;19.00;70.30;;;;;;4995027;28;20374;-67
2020/12/23 07:03:52;;;;;;;0.85;0.70;;;19.00;70.20;;;;;;4984268;28;20073;-66
2020/12/23 07:06:34;;;;;;;2.20;0.70;;;18.90;70.10;;;;;;4989372;28;20048;-66
2020/12/23 07:09:06;;;;;;;0.95;0.70;;;19.00;70.20;;;;;;4992218;28;20054;-65
2020/12/23 07:11:38;;;;;;;3.67;1.30;;;19.00;70.10;;;;;;4990089;28;20038;-65
2020/12/23 07:14:13;;;;;;;3.60;0.70;;;19.00;70.20;;;;;;4996873;28;20052;-64
2020/12/23 07:16:44;;;;;;;2.85;0.90;;;19.00;70.10;;;;;;4989621;28;20046;-64
2020/12/23 07:19:21;;;;;;;3.22;1.00;;;19.00;70.10;;;;;;4993884;28;20073;-64
2020/12/23 07:21:53;;;;;;;2.67;1.10;;;19.00;70.10;;;;;;4992591;28;20088;-65
2020/12/23 07:24:25;;;;;;;3.97;1.40;;;19.00;70.00;;;;;;4999946;28;20137;-65
2020/12/23 07:26:56;;;;;;;1.40;0.90;;;19.00;70.00;;;;;;4995589;28;20605;-65
2020/12/23 07:29:38;;;;;;;1.40;1.15;;;19.10;70.10;;;;;;4996539;28;20045;-65
2020/12/23 07:32:10;;;;;;;3.58;1.15;;;19.10;70.10;;;;;;4990860;28;20046;-65
2020/12/23 07:34:50;;;;;;;2.17;0.90;;;19.10;70.00;;;;;;4991765;28;20057;-65
2020/12/23 07:37:20;;;;;;;2.83;1.02;;;19.00;69.90;;;;;;4993160;28;20048;-64
2020/12/23 07:39:52;;;;;;;2.50;0.98;;;19.00;69.90;;;;;;4993272;28;20052;-65
2020/12/23 07:42:26;;;;;;;2.78;1.00;;;19.10;70.00;;;;;;4994575;28;20069;-64
2020/12/23 07:44:56;;;;;;;2.13;0.85;;;19.10;70.00;;;;;;4995462;28;20042;-65
2020/12/23 07:47:26;;;;;;;2.08;0.90;;;19.10;69.90;;;;;;4993004;28;20038;-66
2020/12/23 07:50:04;;;;;;;2.35;0.85;;;19.10;70.00;;;;;;4993958;28;20046;-65
2020/12/23 07:52:36;;;;;;;3.10;1.08;;;19.10;69.80;;;;;;4997923;28;20046;-66
2020/12/23 07:55:15;;;;;;;8.10;4.68;;;19.10;69.90;;;;;;4999719;28;20049;-65
2020/12/23 07:57:48;;;;;;;5.07;4.35;;;19.10;69.80;;;;;;4995076;28;20045;-65
2020/12/23 08:00:23;;;;;;;2.60;2.40;;;19.20;70.00;;;;;;4995969;28;20161;-66
2020/12/23 08:02:57;;;;;;;3.28;1.33;;;19.20;69.90;;;;;;5001181;28;20537;-66
2020/12/23 08:05:28;;;;;;;2.97;1.20;;;19.10;69.90;;;;;;4999815;28;20045;-66
2020/12/23 08:08:27;;;;;;;2.60;1.65;;;19.10;69.80;;;;;;4990823;28;20081;-67
2020/12/23 08:10:57;;;;;;;8.10;7.40;;;19.20;69.80;;;;;;4998644;28;20121;-66
2020/12/23 08:13:27;;;;;;;4.63;3.10;;;19.20;69.80;;;;;;5001188;28;20116;-65
2020/12/23 08:16:02;;;;;;;3.28;1.92;;;19.20;69.80;;;;;;4987089;28;20038;-66
2020/12/23 08:18:34;;;;;;;2.80;1.67;;;19.20;69.80;;;;;;5002112;28;20137;-65
2020/12/23 08:21:14;;;;;;;5.13;3.70;;;19.20;69.70;;;;;;4998239;28;20050;-66
2020/12/23 08:23:46;;;;;;;9.48;8.10;;;19.10;69.60;;;;;;4989150;28;20521;-66
2020/12/23 08:26:16;;;;;;;9.18;6.78;;;19.10;69.70;;;;;;4991508;28;20335;-64
2020/12/23 08:28:48;;;;;;;6.37;4.90;;;19.10;69.70;;;;;;4985768;28;20050;-66
2020/12/23 08:31:27;;;;;;;6.45;5.85;;;19.20;69.70;;;;;;4988578;28;20049;-66
2020/12/23 08:34:04;;;;;;;3.47;3.17;;;19.20;69.70;;;;;;4993326;28;20041;-65
2020/12/23 08:36:39;;;;;;;4.70;2.40;;;19.10;69.70;;;;;;4991944;28;20046;-66
2020/12/23 08:39:10;;;;;;;3.85;2.80;;;19.20;69.70;;;;;;4996314;28;20496;-65
2020/12/23 08:41:42;;;;;;;2.10;1.25;;;19.20;69.60;;;;;;4991752;28;20046;-66
2020/12/23 08:44:22;;;;;;;3.05;1.73;;;19.10;69.60;;;;;;4984919;28;20046;-65
2020/12/23 08:46:52;;;;;;;2.63;2.30;;;19.10;69.50;;;;;;4986970;28;20054;-66
2020/12/23 08:49:23;;;;;;;1.88;1.30;;;19.10;69.60;;;;;;4994407;28;20056;-67
2020/12/23 08:51:55;;;;;;;3.28;1.10;;;19.10;69.60;;;;;;4987588;28;20038;-65
2020/12/23 08:54:26;;;;;;;5.05;3.28;;;19.10;69.50;;;;;;4988241;28;20532;-65
2020/12/23 08:56:58;;;;;;;7.35;5.07;;;19.10;69.50;;;;;;4986458;28;20042;-66
2020/12/23 08:59:41;;;;;;;5.63;3.95;;;19.10;69.40;;;;;;4992199;28;22559;-66
2020/12/23 09:02:15;;;;;;;8.85;8.05;;;19.10;69.50;;;;;;4990239;28;20286;-66
2020/12/23 09:04:45;;;;;;;7.57;6.82;;;19.10;69.50;;;;;;4993960;28;20053;-66
2020/12/23 09:07:26;;;;;;;4.28;2.28;;;19.10;69.60;;;;;;4997006;28;20046;-66
2020/12/23 09:09:56;;;;;;;1.77;1.00;;;19.10;69.50;;;;;;4990348;28;20065;-67
2020/12/23 09:12:28;;;;;;;2.60;1.30;;;19.10;69.50;;;;;;4986284;28;20153;-65
2020/12/23 09:14:59;;;;;;;2.38;1.73;;;19.10;69.50;;;;;;4984632;28;20580;-65
2020/12/23 09:17:30;;;;;;;;;;;19.10;69.60;;;;;;4989870;28;20052;-66
2020/12/23 09:20:05;;;;;;;3.70;1.13;;;19.10;69.60;;;;;;4999999;28;20377;-66
2020/12/23 09:22:43;;;;;;;7.18;5.63;;;19.10;69.50;;;;;;4997181;28;20161;-65
2020/12/23 09:25:14;;;;;;;3.10;0.82;;;19.10;69.60;;;;;;4987463;28;20039;-65
2020/12/23 09:27:49;;;;;;;1.20;0.82;;;19.00;69.50;;;;;;4989038;28;20045;-65
2020/12/23 09:30:42;;;;;;;4.18;1.15;;;19.00;69.50;;;;;;4994088;28;20140;-64
2020/12/23 09:33:20;;;;;;;3.33;1.05;;;19.00;69.60;;;;;;4989919;28;20353;-66
2020/12/23 09:36:12;;;;;;;1.98;0.73;;;19.00;69.60;;;;;;4984224;28;20101;-65
2020/12/23 09:38:46;;;;;;;4.60;0.90;;;19.00;69.70;;;;;;4999622;28;20521;-65
2020/12/23 09:41:18;;;;;;;2.15;1.27;;;19.00;69.60;;;;;;4990860;28;20042;-66
2020/12/23 09:43:48;;;;;;;1.65;0.80;;;19.00;69.80;;;;;;4987351;28;20041;-65
2020/12/23 09:46:18;;;;;;;0.77;0.70;;;19.00;69.80;;;;;;4987583;28;20050;-65
2020/12/23 09:48:51;;;;;;;1.88;0.93;;;19.00;69.80;;;;;;4988552;28;20038;-66
2020/12/23 09:51:24;;;;;;;3.60;1.00;;;19.00;69.80;;;;;;4982825;28;20042;-66
2020/12/23 09:53:54;;;;;;;1.33;0.85;;;19.00;69.80;;;;;;4999189;28;20113;-66
2020/12/23 09:56:24;;;;;;;1.85;0.80;;;19.00;69.80;;;;;;4990553;28;20042;-66
2020/12/23 09:58:53;;;;;;;2.75;1.00;;;19.00;70.50;;;;;;4992721;28;20521;-65
2020/12/23 10:01:24;;;;;;;1.42;0.70;;;19.00;69.90;;;;;;4996981;28;20065;-64
2020/12/23 10:03:55;;;;;;;1.95;0.80;;;19.00;69.80;;;;;;4992992;28;20042;-65
2020/12/23 10:06:27;;;;;;;3.00;0.68;;;18.90;69.80;;;;;;4994705;28;20129;-67
2020/12/23 10:08:56;;;;;;;1.20;0.90;;;19.00;69.80;;;;;;4985071;28;20068;-66
2020/12/23 10:11:26;;;;;;;1.95;0.68;;;18.90;69.90;;;;;;4985171;28;20145;-64
2020/12/23 10:13:59;;;;;;;1.35;0.60;;;19.00;70.00;;;;;;4994716;28;20073;-66
2020/12/23 10:16:35;;;;;;;1.25;0.65;;;19.00;69.90;;;;;;4994558;28;20042;-67
2020/12/23 10:19:08;;;;;;;2.63;1.00;;;18.90;69.90;;;;;;4990253;28;20049;-66
2020/12/23 10:21:40;;;;;;;2.85;1.10;;;18.90;69.90;;;;;;4988726;28;20454;-65
2020/12/23 10:24:10;;;;;;;1.88;0.60;;;18.90;69.90;;;;;;4988935;28;20170;-64
2020/12/23 10:26:40;;;;;;;2.65;0.63;;;18.90;70.00;;;;;;5002789;28;20064;-64
2020/12/23 10:29:12;;;;;;;3.15;1.08;;;18.90;69.90;;;;;;4990854;28;20100;-65
2020/12/23 10:31:42;;;;;;;3.53;1.60;;;18.90;70.00;;;;;;4992696;28;20099;-64
2020/12/23 10:34:15;;;;;;;;;;;18.90;70.00;;;;;;4989357;28;20034;-66
2020/12/23 10:36:49;;;;;;;3.08;1.02;;;18.90;70.00;;;;;;4990138;28;19926;-65
2020/12/23 10:39:27;;;;;;;2.25;0.63;;;18.90;70.10;;;;;;4987158;28;20139;-66
2020/12/23 10:41:58;;;;;;;3.20;1.20;;;18.80;70.10;;;;;;4984319;28;20049;-65
2020/12/23 10:44:32;;;;;;;1.27;0.70;;;18.80;70.10;;;;;;4988229;28;20073;-66
2020/12/23 10:47:02;;;;;;;2.70;0.95;;;18.80;70.00;;;;;;4995993;28;20042;-65
2020/12/23 10:49:34;;;;;;;1.73;0.75;;;18.80;70.10;;;;;;4984605;28;20046;-67
2020/12/23 10:52:06;;;;;;;1.17;0.65;;;18.80;70.20;;;;;;4991415;28;20038;-67
2020/12/23 10:54:35;;;;;;;4.35;1.15;;;18.80;70.10;;;;;;4983117;28;20051;-66
2020/12/23 10:57:05;;;;;;;1.52;0.63;;;18.80;70.20;;;;;;4987875;28;20133;-66
2020/12/23 10:59:37;;;;;;;0.95;0.85;;;18.80;70.20;;;;;;4985963;28;20038;-65
2020/12/23 11:02:09;;;;;;;2.10;0.45;;;18.80;70.10;;;;;;4990868;28;20074;-65
2020/12/23 11:04:40;;;;;;;1.48;1.10;;;18.80;70.20;;;;;;4996798;28;20042;-65
2020/12/23 11:07:11;;;;;;;;;;;18.70;70.10;;;;;;4989336;28;20053;-66
2020/12/23 11:09:42;;;;;;;2.78;0.80;;;18.70;70.20;;;;;;4986342;28;20064;-66
2020/12/23 11:12:11;;;;;;;1.63;0.43;;;18.70;70.20;;;;;;4994834;28;20056;-66
2020/12/23 11:14:42;;;;;;;2.10;0.68;;;18.70;70.20;;;;;;4984470;28;20049;-65
2020/12/23 11:17:13;;;;;;;3.40;1.55;;;18.70;70.30;;;;;;4989398;28;20497;-66
2020/12/23 11:19:46;;;;;;;2.38;1.02;;;18.70;70.30;;;;;;4990859;28;20049;-66
2020/12/23 11:22:17;;;;;;;3.50;0.88;;;18.70;70.20;;;;;;4991839;28;20042;-64
2020/12/23 11:25:04;;;;;;;2.05;0.85;;;18.70;70.30;;;;;;4999970;28;20517;-66
2020/12/23 11:27:34;;;;;;;1.17;1.08;;;18.60;70.30;;;;;;4995943;28;20264;-65
2020/12/23 11:30:06;;;;;;;1.45;0.77;;;18.70;70.40;;;;;;4995812;28;20092;-66
2020/12/23 11:32:36;;;;;;;4.55;0.85;;;18.60;70.30;;;;;;5000056;28;20109;-65
2020/12/23 11:35:10;;;;;;;2.85;1.10;;;18.60;70.40;;;;;;5001106;28;20034;-66
2020/12/23 11:37:41;;;;;;;0.80;0.77;;;18.60;70.40;;;;;;4997885;28;20062;-66
2020/12/23 11:40:11;;;;;;;1.80;0.90;;;18.60;70.50;;;;;;4997951;28;20069;-66
2020/12/23 11:42:42;;;;;;;1.92;0.73;;;18.60;70.50;;;;;;4996766;28;20100;-66
2020/12/23 11:45:12;;;;;;;2.42;0.60;;;18.60;70.50;;;;;;4998099;28;20053;-67
2020/12/23 11:47:42;;;;;;;2.35;0.70;;;18.60;70.50;;;;;;4990257;28;20038;-67
2020/12/23 11:50:13;;;;;;;2.25;0.57;;;18.50;70.50;;;;;;4993324;28;20050;-66
2020/12/23 11:52:43;;;;;;;2.85;0.70;;;18.50;70.50;;;;;;5004875;28;20084;-67
2020/12/23 11:55:18;;;;;;;1.23;0.63;;;18.50;70.50;;;;;;5001303;28;20044;-66
2020/12/23 11:57:49;;;;;;;2.08;1.00;;;18.50;70.50;;;;;;4997042;28;20050;-65
2020/12/23 12:00:22;;;;;;;1.02;0.70;;;18.50;70.70;;;;;;4992048;28;20803;-65
2020/12/23 12:02:51;;;;;;;1.63;0.85;;;18.50;70.80;;;;;;4994380;28;22450;-66
2020/12/23 12:05:21;;;;;;;2.13;0.68;;;18.50;70.70;;;;;;4995090;28;20041;-66
2020/12/23 12:07:54;;;;;;;1.42;0.80;;;18.50;71.40;;;;;;4995780;28;20142;-65
2020/12/23 12:10:24;;;;;;;0.95;0.63;;;18.50;70.90;;;;;;4998239;28;20072;-66
2020/12/23 12:12:54;;;;;;;2.33;0.93;;;18.50;70.90;;;;;;4988940;28;20493;-63
2020/12/23 12:15:25;;;;;;;1.92;0.68;;;18.50;70.90;;;;;;4997027;28;20049;-66
2020/12/23 12:17:57;;;;;;;1.40;0.40;;;18.50;70.90;;;;;;5001254;28;20494;-65
2020/12/23 12:20:28;;;;;;;1.92;0.93;;;18.40;71.00;;;;;;4990819;28;20045;-65
2020/12/23 12:22:59;;;;;;;;;;;18.40;70.90;;;;;;4990495;28;20049;-66
2020/12/23 12:25:30;;;;;;;2.25;0.68;;;18.40;71.00;;;;;;4992927;28;20006;-66
2020/12/23 12:28:02;;;;;;;1.55;0.65;;;18.40;71.00;;;;;;4998949;28;20141;-65
2020/12/23 12:30:35;;;;;;;1.85;0.70;;;18.40;71.10;;;;;;4996867;28;20041;-65
2020/12/23 12:33:06;;;;;;;2.63;0.80;;;18.40;71.20;;;;;;4993679;28;20038;-66
2020/12/23 12:35:37;;;;;;;0.40;0.40;;;18.40;71.10;;;;;;4987667;28;20049;-66
2020/12/23 12:38:09;;;;;;;1.50;1.00;;;18.40;71.20;;;;;;4985469;28;20053;-66
2020/12/23 12:40:41;;;;;;;1.73;0.70;;;18.40;71.30;;;;;;5003841;28;20069;-66
2020/12/23 12:43:12;;;;;;;1.05;0.88;;;18.40;71.20;;;;;;4988450;28;20053;-66
2020/12/23 12:45:42;;;;;;;;;;;18.40;71.20;;;;;;5004375;28;20042;-64
2020/12/23 12:48:12;;;;;;;1.60;0.98;;;18.40;71.30;;;;;;4994876;28;20019;-66
2020/12/23 12:50:43;;;;;;;2.55;0.90;;;18.40;71.30;;;;;;4994434;28;20046;-66
2020/12/23 12:53:15;;;;;;;1.48;0.65;;;18.40;71.40;;;;;;4992872;28;20553;-67
2020/12/23 12:55:44;;;;;;;0.70;0.68;;;18.40;71.40;;;;;;4986113;28;20074;-65
2020/12/23 12:58:15;;;;;;;0.85;0.63;;;18.40;71.50;;;;;;4997821;28;20038;-64
2020/12/23 13:00:46;;;;;;;;;;;18.40;71.50;;;;;;4996921;28;20128;-65
2020/12/23 13:03:16;;;;;;;1.95;1.25;;;18.40;71.60;;;;;;4995082;28;19925;-65
2020/12/23 13:05:51;;;;;;;1.77;0.98;;;18.30;71.50;;;;;;4995689;28;20046;-65
2020/12/23 13:08:21;;;;;;;0.55;0.50;;;18.40;71.60;;;;;;4996767;28;20050;-66
2020/12/23 13:10:50;;;;;;;1.73;0.70;;;18.30;71.50;;;;;;4995045;28;20133;-66
2020/12/23 13:13:20;;;;;;;1.42;0.85;;;18.30;71.40;;;;;;4989720;28;20141;-64
2020/12/23 13:15:51;;;;;;;3.75;3.47;;;18.30;71.60;;;;;;4990301;28;20125;-64
2020/12/23 13:18:22;;;;;;;7.70;7.20;;;18.30;71.70;;;;;;5000702;28;20129;-65
2020/12/23 13:20:54;;;;;;;8.15;7.53;;;18.30;71.70;;;;;;4991766;28;20046;-64